createdAt,value
2022-09-11T00:00:11.970Z,84.25
2022-09-11T00:02:38.150Z,84.41
2022-09-11T00:05:04.338Z,84.30
2022-09-11T00:07:30.527Z,84.23
2022-09-11T00:09:56.749Z,84.35
2022-09-11T00:12:22.907Z,84.29
2022-09-11T00:14:49.080Z,84.36
2022-09-11T00:17:15.217Z,84.43
2022-09-11T00:19:41.313Z,84.42
2022-09-11T00:22:07.461Z,84.25
2022-09-11T00:24:33.577Z,84.34
2022-09-11T00:26:59.714Z,84.40
2022-09-11T00:29:25.828Z,84.33
2022-09-11T00:31:51.934Z,84.54
2022-09-11T00:34:18.026Z,84.43
2022-09-11T00:36:44.137Z,84.53
2022-09-11T00:39:10.213Z,84.25
2022-09-11T00:41:36.439Z,84.27
2022-09-11T00:44:03.152Z,84.14
2022-09-11T00:46:29.263Z,84.01
2022-09-11T00:48:55.366Z,84.00
2022-09-11T00:51:21.476Z,84.15
2022-09-11T00:53:47.587Z,84.06
2022-09-11T00:56:13.669Z,83.99
2022-09-11T00:58:39.803Z,84.06
2022-09-11T01:01:05.955Z,84.04
2022-09-11T01:03:32.088Z,84.03
2022-09-11T01:05:58.354Z,83.90
2022-09-11T01:08:24.511Z,83.75
2022-09-11T01:10:50.588Z,83.81
2022-09-11T01:13:16.719Z,83.71
2022-09-11T01:15:42.819Z,83.57
2022-09-11T01:18:08.896Z,83.60
2022-09-11T01:20:34.997Z,83.67
2022-09-11T01:23:01.087Z,83.66
2022-09-11T01:25:27.184Z,83.53
2022-09-11T01:27:53.307Z,83.45
2022-09-11T01:30:19.412Z,83.38
2022-09-11T01:32:45.531Z,83.39
2022-09-11T01:35:11.649Z,83.28
2022-09-11T01:37:37.746Z,83.31
2022-09-11T01:40:03.885Z,83.16
2022-09-11T01:42:30.028Z,83.27
2022-09-11T01:44:56.134Z,83.33
2022-09-11T01:47:22.230Z,83.31
2022-09-11T01:49:48.847Z,83.27
2022-09-11T01:52:14.938Z,83.39
2022-09-11T01:54:41.021Z,83.25
2022-09-11T01:57:07.130Z,83.30
2022-09-11T01:59:33.214Z,83.18
2022-09-11T02:02:01.170Z,83.26
2022-09-11T02:04:27.276Z,83.26
2022-09-11T02:06:53.366Z,83.45
2022-09-11T02:09:19.459Z,83.28
2022-09-11T02:11:45.572Z,83.14
2022-09-11T02:14:11.665Z,83.17
2022-09-11T02:16:37.800Z,83.13
2022-09-11T02:19:03.956Z,83.12
2022-09-11T02:21:30.045Z,83.27
2022-09-11T02:23:56.137Z,83.28
2022-09-11T02:26:22.565Z,83.49
2022-09-11T02:28:48.664Z,83.25
2022-09-11T02:31:14.797Z,83.32
2022-09-11T02:33:40.933Z,83.38
2022-09-11T02:36:07.021Z,83.36
2022-09-11T02:38:33.110Z,83.33
2022-09-11T02:40:59.214Z,83.38
2022-09-11T02:43:25.292Z,83.47
2022-09-11T02:45:51.412Z,83.54
2022-09-11T02:48:17.836Z,83.63
2022-09-11T02:50:43.916Z,83.60
2022-09-11T02:53:09.997Z,83.66
2022-09-11T02:55:36.163Z,83.71
2022-09-11T02:58:02.243Z,83.79
2022-09-11T03:00:28.339Z,83.71
2022-09-11T03:02:54.450Z,83.72
2022-09-11T03:05:20.534Z,83.63
2022-09-11T03:07:46.626Z,83.70
2022-09-11T03:10:12.748Z,83.68
2022-09-11T03:12:38.846Z,83.58
2022-09-11T03:15:04.938Z,83.54
2022-09-11T03:17:31.051Z,83.49
2022-09-11T03:19:57.144Z,83.70
2022-09-11T03:22:23.231Z,83.71
2022-09-11T03:24:49.326Z,83.57
2022-09-11T03:27:15.422Z,83.54
2022-09-11T03:29:41.523Z,83.54
2022-09-11T03:32:07.671Z,83.64
2022-09-11T03:34:33.764Z,83.65
2022-09-11T03:36:59.855Z,83.65
2022-09-11T03:39:25.959Z,83.58
2022-09-11T03:41:52.053Z,83.69
2022-09-11T03:44:18.142Z,83.65
2022-09-11T03:46:44.245Z,83.75
2022-09-11T03:49:10.327Z,83.71
2022-09-11T03:51:36.418Z,83.62
2022-09-11T03:54:02.604Z,83.84
2022-09-11T03:56:28.696Z,83.82
2022-09-11T03:58:54.791Z,83.68
2022-09-11T04:01:20.994Z,83.85
2022-09-11T04:03:47.108Z,83.81
2022-09-11T04:06:13.213Z,83.76
2022-09-11T04:08:39.311Z,83.89
2022-09-11T04:11:05.402Z,83.68
2022-09-11T04:13:31.485Z,83.79
2022-09-11T04:15:57.589Z,83.88
2022-09-11T04:18:23.681Z,83.82
2022-09-11T04:20:49.772Z,83.88
2022-09-11T04:23:15.895Z,83.98
2022-09-11T04:25:41.998Z,83.72
2022-09-11T04:28:08.084Z,83.95
2022-09-11T04:30:34.177Z,83.84
2022-09-11T04:33:00.266Z,83.80
2022-09-11T04:35:26.354Z,83.68
2022-09-11T04:37:52.462Z,83.84
2022-09-11T04:40:18.569Z,83.90
2022-09-11T04:42:44.657Z,83.87
2022-09-11T04:45:10.773Z,83.89
2022-09-11T04:47:36.863Z,83.92
2022-09-11T04:50:02.945Z,83.94
2022-09-11T04:52:29.063Z,83.97
2022-09-11T04:54:55.156Z,83.81
2022-09-11T04:57:21.255Z,83.79
2022-09-11T04:59:48.023Z,83.99
2022-09-11T05:02:14.137Z,83.81
2022-09-11T05:04:40.260Z,83.82
2022-09-11T05:07:06.368Z,83.77
2022-09-11T05:09:32.455Z,83.94
2022-09-11T05:11:58.546Z,83.99
2022-09-11T05:14:24.648Z,83.94
2022-09-11T05:16:50.733Z,83.75
2022-09-11T05:19:16.808Z,83.75
2022-09-11T05:21:42.933Z,83.89
2022-09-11T05:24:09.013Z,83.78
2022-09-11T05:26:35.103Z,83.67
2022-09-11T05:29:01.243Z,83.80
2022-09-11T05:31:27.355Z,83.63
2022-09-11T05:33:53.474Z,83.62
2022-09-11T05:36:19.618Z,83.57
2022-09-11T05:38:45.713Z,83.60
2022-09-11T05:41:11.810Z,83.58
2022-09-11T05:43:37.925Z,83.71
2022-09-11T05:46:04.048Z,83.71
2022-09-11T05:48:30.154Z,83.69
2022-09-11T05:50:56.264Z,83.65
2022-09-11T05:53:22.340Z,83.58
2022-09-11T05:55:48.436Z,83.54
2022-09-11T05:58:14.836Z,83.41
2022-09-11T06:00:40.920Z,83.64
2022-09-11T06:03:07.018Z,83.52
2022-09-11T06:05:33.410Z,83.56
2022-09-11T06:07:59.502Z,83.50
2022-09-11T06:10:25.595Z,83.59
2022-09-11T06:12:51.706Z,83.46
2022-09-11T06:15:42.875Z,83.46
2022-09-11T06:18:03.873Z,83.56
2022-09-11T06:20:29.967Z,83.46
2022-09-11T06:22:56.061Z,83.18
2022-09-11T06:25:22.165Z,83.38
2022-09-11T06:27:48.255Z,83.24
2022-09-11T06:30:14.362Z,83.16
2022-09-11T06:32:40.479Z,83.06
2022-09-11T06:35:06.575Z,82.86
2022-09-11T06:37:32.669Z,82.78
2022-09-11T06:39:59.573Z,82.81
2022-09-11T06:42:25.717Z,82.73
2022-09-11T06:44:51.797Z,82.59
2022-09-11T06:47:17.900Z,82.28
2022-09-11T06:49:44.022Z,82.36
2022-09-11T06:52:10.113Z,82.08
2022-09-11T06:54:36.225Z,82.08
2022-09-11T06:57:02.317Z,81.96
2022-09-11T06:59:28.398Z,82.04
2022-09-11T07:01:55.152Z,82.08
2022-09-11T07:04:21.300Z,81.98
2022-09-11T07:06:47.395Z,81.94
2022-09-11T07:09:13.496Z,81.74
2022-09-11T07:11:39.586Z,81.73
2022-09-11T07:14:05.691Z,81.58
2022-09-11T07:16:31.858Z,81.55
2022-09-11T07:18:57.973Z,81.20
2022-09-11T07:21:24.052Z,81.40
2022-09-11T07:23:50.149Z,81.31
2022-09-11T07:26:16.255Z,81.31
2022-09-11T07:28:42.354Z,81.25
2022-09-11T07:31:08.492Z,81.19
2022-09-11T07:33:34.633Z,81.04
2022-09-11T07:36:00.719Z,81.01
2022-09-11T07:38:26.826Z,80.83
2022-09-11T07:40:52.918Z,80.80
2022-09-11T07:43:19.015Z,80.65
2022-09-11T07:45:45.175Z,80.54
2022-09-11T07:48:11.312Z,80.30
2022-09-11T07:50:37.407Z,80.25
2022-09-11T07:53:03.518Z,80.24
2022-09-11T07:55:29.635Z,80.40
2022-09-11T07:57:55.753Z,80.08
2022-09-11T08:00:21.874Z,80.00
2022-09-11T08:02:47.978Z,79.90
2022-09-11T08:05:14.092Z,80.07
2022-09-11T08:07:40.568Z,80.02
2022-09-11T08:10:26.173Z,79.92
2022-09-11T08:12:56.805Z,79.78
2022-09-11T08:15:25.397Z,79.84
2022-09-11T08:17:52.690Z,79.68
2022-09-11T08:20:18.837Z,79.69
2022-09-11T08:22:44.975Z,79.60
2022-09-11T08:25:11.075Z,79.56
2022-09-11T08:27:37.271Z,79.53
2022-09-11T08:30:03.374Z,79.36
2022-09-11T08:32:29.541Z,79.46
2022-09-11T08:34:55.649Z,79.25
2022-09-11T08:37:21.836Z,79.30
2022-09-11T08:39:47.995Z,78.99
2022-09-11T08:42:14.180Z,79.33
2022-09-11T08:44:40.312Z,78.93
2022-09-11T08:47:06.433Z,78.81
2022-09-11T08:49:32.587Z,78.58
2022-09-11T08:51:58.715Z,78.53
2022-09-11T08:54:24.889Z,78.38
2022-09-11T08:56:51.023Z,78.18
2022-09-11T08:59:17.325Z,78.30
2022-09-11T09:01:43.514Z,77.68
2022-09-11T09:04:09.769Z,77.56
2022-09-11T09:06:35.881Z,77.36
2022-09-11T09:09:01.978Z,77.06
2022-09-11T09:11:28.132Z,76.84
2022-09-11T09:13:54.250Z,76.68
2022-09-11T09:16:20.413Z,76.32
2022-09-11T09:18:46.575Z,75.94
2022-09-11T09:21:12.687Z,75.58
2022-09-11T09:23:38.780Z,75.44
2022-09-11T09:26:04.890Z,75.10
2022-09-11T09:28:31.009Z,75.04
2022-09-11T09:30:57.142Z,74.80
2022-09-11T09:33:23.260Z,74.52
2022-09-11T09:35:49.370Z,74.05
2022-09-11T09:38:17.639Z,73.64
2022-09-11T09:40:44.844Z,73.23
2022-09-11T09:43:11.048Z,72.67
2022-09-11T09:45:37.148Z,72.47
2022-09-11T09:48:03.314Z,72.73
2022-09-11T09:50:29.397Z,72.81
2022-09-11T09:52:55.722Z,73.14
2022-09-11T09:55:21.838Z,73.29
2022-09-11T09:57:47.930Z,73.34
2022-09-11T10:00:14.035Z,73.13
2022-09-11T10:02:40.218Z,73.14
2022-09-11T10:05:06.341Z,73.11
2022-09-11T10:07:32.439Z,72.93
2022-09-11T10:09:58.559Z,73.07
2022-09-11T10:12:24.648Z,73.10
2022-09-11T10:14:52.188Z,73.11
2022-09-11T10:17:18.667Z,72.95
2022-09-11T10:19:44.750Z,72.78
2022-09-11T10:22:10.834Z,72.77
2022-09-11T10:24:36.951Z,72.50
2022-09-11T10:27:03.058Z,72.04
2022-09-11T10:29:29.141Z,71.92
2022-09-11T10:31:55.266Z,71.77
2022-09-11T10:34:21.369Z,71.68
2022-09-11T10:36:47.460Z,71.17
2022-09-11T10:39:13.572Z,71.06
2022-09-11T10:41:39.657Z,70.89
2022-09-11T10:44:05.747Z,70.99
2022-09-11T10:46:39.480Z,71.18
2022-09-11T10:49:05.619Z,71.48
2022-09-11T10:51:31.736Z,71.91
2022-09-11T10:53:57.841Z,71.81
2022-09-11T10:56:23.929Z,71.93
2022-09-11T10:58:54.418Z,72.04
2022-09-11T11:01:21.050Z,71.92
2022-09-11T11:03:47.162Z,71.98
2022-09-11T11:06:13.253Z,71.78
2022-09-11T11:08:39.413Z,71.65
2022-09-11T11:11:05.613Z,71.66
2022-09-11T11:13:31.711Z,71.36
2022-09-11T11:15:57.835Z,71.07
2022-09-11T11:18:23.961Z,70.79
2022-09-11T11:20:50.055Z,70.54
2022-09-11T11:23:16.769Z,70.21
2022-09-11T11:25:42.873Z,70.39
2022-09-11T11:28:08.960Z,70.54
2022-09-11T11:30:35.085Z,70.80
2022-09-11T11:33:01.172Z,70.95
2022-09-11T11:35:27.265Z,71.19
2022-09-11T11:37:53.365Z,71.23
2022-09-11T11:40:19.768Z,71.42
2022-09-11T11:42:45.921Z,71.44
2022-09-11T11:45:12.025Z,71.30
2022-09-11T11:47:38.121Z,71.22
2022-09-11T11:50:04.198Z,71.17
2022-09-11T11:52:30.600Z,70.94
2022-09-11T11:54:56.690Z,70.93
2022-09-11T11:57:22.769Z,70.61
2022-09-11T11:59:48.886Z,70.31
2022-09-11T12:02:15.033Z,69.99
2022-09-11T12:04:41.146Z,69.48
2022-09-11T12:07:07.277Z,69.24
2022-09-11T12:09:33.992Z,69.22
2022-09-11T12:12:00.277Z,69.17
2022-09-11T12:14:26.753Z,69.13
2022-09-11T12:16:52.856Z,69.37
2022-09-11T12:19:18.976Z,69.31
2022-09-11T12:21:45.168Z,69.28
2022-09-11T12:24:11.274Z,69.37
2022-09-11T12:26:39.438Z,69.11
2022-09-11T12:29:05.538Z,68.85
2022-09-11T12:31:31.691Z,68.80
2022-09-11T12:33:57.805Z,68.87
2022-09-11T12:36:23.917Z,68.66
2022-09-11T12:38:50.016Z,68.54
2022-09-11T12:41:16.105Z,68.48
2022-09-11T12:43:42.266Z,68.32
2022-09-11T12:46:08.397Z,68.02
2022-09-11T12:48:34.544Z,68.00
2022-09-11T12:51:00.653Z,67.95
2022-09-11T12:53:26.736Z,67.95
2022-09-11T12:55:52.829Z,67.88
2022-09-11T12:58:19.961Z,67.69
2022-09-11T13:00:46.084Z,67.50
2022-09-11T13:03:12.164Z,67.41
2022-09-11T13:05:38.259Z,67.50
2022-09-11T13:08:04.342Z,67.34
2022-09-11T13:10:30.448Z,67.44
2022-09-11T13:12:56.586Z,67.49
2022-09-11T13:15:22.685Z,67.28
2022-09-11T13:17:48.764Z,67.24
2022-09-11T13:20:14.861Z,67.37
2022-09-11T13:22:40.944Z,67.14
2022-09-11T13:25:07.046Z,66.99
2022-09-11T13:27:33.511Z,66.96
2022-09-11T13:29:59.596Z,66.87
2022-09-11T13:32:25.685Z,66.71
2022-09-11T13:34:51.793Z,66.69
2022-09-11T13:37:17.881Z,66.70
2022-09-11T13:39:44.082Z,66.70
2022-09-11T13:42:10.208Z,66.36
2022-09-11T13:44:36.285Z,66.20
2022-09-11T13:47:02.376Z,66.17
2022-09-11T13:49:28.482Z,66.09
2022-09-11T13:51:54.599Z,65.99
2022-09-11T13:54:20.687Z,65.81
2022-09-11T13:56:47.306Z,65.91
2022-09-11T13:59:13.409Z,65.74
2022-09-11T14:01:39.512Z,65.73
2022-09-11T14:04:05.646Z,65.70
2022-09-11T14:06:31.767Z,65.58
2022-09-11T14:08:57.883Z,65.50
2022-09-11T14:11:24.002Z,65.51
2022-09-11T14:13:50.080Z,65.55
2022-09-11T14:16:16.223Z,65.38
2022-09-11T14:18:42.443Z,65.16
2022-09-11T14:21:08.531Z,64.62
2022-09-11T14:23:34.653Z,64.46
2022-09-11T14:26:00.807Z,64.55
2022-09-11T14:28:26.905Z,64.39
2022-09-11T14:30:53.045Z,64.19
2022-09-11T14:33:19.535Z,64.25
2022-09-11T14:35:45.627Z,63.98
2022-09-11T14:38:11.714Z,63.80
2022-09-11T14:40:37.886Z,63.77
2022-09-11T14:43:04.005Z,63.69
2022-09-11T14:45:30.100Z,63.33
2022-09-11T14:47:56.206Z,62.64
2022-09-11T14:50:22.305Z,62.09
2022-09-11T14:52:48.406Z,61.60
2022-09-11T14:55:14.528Z,61.51
2022-09-11T14:57:40.636Z,61.20
2022-09-11T15:00:06.734Z,60.17
2022-09-11T15:02:32.897Z,59.57
2022-09-11T15:04:59.000Z,58.83
2022-09-11T15:07:25.098Z,58.52
2022-09-11T15:09:51.212Z,57.32
2022-09-11T15:12:17.413Z,55.87
2022-09-11T15:14:59.647Z,53.85
2022-09-11T15:17:25.994Z,51.10
2022-09-11T15:19:52.073Z,49.22
2022-09-11T15:22:18.179Z,47.14
2022-09-11T15:24:44.292Z,44.07
2022-09-11T15:27:10.369Z,42.61
2022-09-11T15:29:36.461Z,42.04
2022-09-11T15:32:02.579Z,41.82
2022-09-11T15:34:28.662Z,40.92
2022-09-11T15:36:54.754Z,41.11
2022-09-11T15:39:20.877Z,39.33
2022-09-11T15:41:46.980Z,38.65
2022-09-11T15:44:13.083Z,39.04
2022-09-11T15:46:39.251Z,38.19
2022-09-11T15:49:05.347Z,37.27
2022-09-11T15:51:31.467Z,38.24
2022-09-11T15:53:57.574Z,38.01
2022-09-11T15:56:25.945Z,38.21
2022-09-11T15:58:52.292Z,38.17
2022-09-11T16:01:18.489Z,38.15
2022-09-11T16:03:44.764Z,37.93
2022-09-11T16:06:10.945Z,38.14
2022-09-11T16:08:37.091Z,38.62
2022-09-11T16:11:03.241Z,39.15
2022-09-11T16:13:29.320Z,39.16
2022-09-11T16:15:55.477Z,40.15
2022-09-11T16:18:21.609Z,40.73
2022-09-11T16:20:47.695Z,41.16
2022-09-11T16:23:13.888Z,41.59
2022-09-11T16:25:39.994Z,41.99
2022-09-11T16:28:06.089Z,42.12
2022-09-11T16:30:43.200Z,42.46
2022-09-11T16:33:10.486Z,42.54
2022-09-11T16:35:36.689Z,42.70
2022-09-11T16:38:02.874Z,42.42
2022-09-11T16:40:28.958Z,42.05
2022-09-11T16:42:55.444Z,41.86
2022-09-11T16:45:21.549Z,41.37
2022-09-11T16:47:47.648Z,41.18
2022-09-11T16:50:13.771Z,40.57
2022-09-11T16:52:39.874Z,40.31
2022-09-11T16:55:05.962Z,40.58
2022-09-11T16:57:32.160Z,40.81
2022-09-11T16:59:58.300Z,40.73
2022-09-11T17:02:24.487Z,41.00
2022-09-11T17:04:50.732Z,40.96
2022-09-11T17:07:16.908Z,41.18
2022-09-11T17:09:43.014Z,41.51
2022-09-11T17:12:09.140Z,41.95
2022-09-11T17:14:35.225Z,42.03
2022-09-11T17:17:01.315Z,42.38
2022-09-11T17:19:27.427Z,42.68
2022-09-11T17:21:53.538Z,42.56
2022-09-11T17:24:19.623Z,42.99
2022-09-11T17:26:45.758Z,43.17
2022-09-11T17:29:11.842Z,43.67
2022-09-11T17:31:37.999Z,44.25
2022-09-11T17:34:04.143Z,45.00
2022-09-11T17:36:30.238Z,45.55
2022-09-11T17:38:56.337Z,46.20
2022-09-11T17:41:22.482Z,46.55
2022-09-11T17:43:50.700Z,46.92
2022-09-11T17:46:16.819Z,47.32
2022-09-11T17:48:43.125Z,47.77
2022-09-11T17:51:09.303Z,48.25
2022-09-11T17:53:38.242Z,48.57
2022-09-11T17:56:04.787Z,49.10
2022-09-11T17:58:30.910Z,49.18
2022-09-11T18:00:57.074Z,49.85
2022-09-11T18:03:23.277Z,50.03
2022-09-11T18:05:49.370Z,50.58
2022-09-11T18:08:15.484Z,51.03
2022-09-11T18:10:41.633Z,51.30
2022-09-11T18:13:07.726Z,51.60
2022-09-11T18:15:33.825Z,52.17
2022-09-11T18:17:59.950Z,52.34
2022-09-11T18:20:26.033Z,52.79
2022-09-11T18:22:52.122Z,53.28
2022-09-11T18:25:19.710Z,53.38
2022-09-11T18:27:45.858Z,53.67
2022-09-11T18:30:11.989Z,54.43
2022-09-11T18:32:39.851Z,54.47
2022-09-11T18:35:06.036Z,54.87
2022-09-11T18:37:32.147Z,55.22
2022-09-11T18:39:59.493Z,55.42
2022-09-11T18:42:26.020Z,55.55
2022-09-11T18:44:52.114Z,55.84
2022-09-11T18:47:18.286Z,56.17
2022-09-11T18:49:44.389Z,56.55
2022-09-11T18:52:10.479Z,56.92
2022-09-11T18:54:36.598Z,57.28
2022-09-11T18:57:02.686Z,57.55
2022-09-11T18:59:28.783Z,57.92
2022-09-11T19:01:55.058Z,58.33
2022-09-11T19:04:21.247Z,58.70
2022-09-11T19:06:47.324Z,59.02
2022-09-11T19:09:13.521Z,59.34
2022-09-11T19:11:39.688Z,59.32
2022-09-11T19:14:05.799Z,59.55
2022-09-11T19:16:31.937Z,59.95
2022-09-11T19:18:58.075Z,60.23
2022-09-11T19:21:25.722Z,60.61
2022-09-11T19:23:51.858Z,60.75
2022-09-11T19:26:18.000Z,60.93
2022-09-11T19:28:44.105Z,61.27
2022-09-11T19:31:10.284Z,61.61
2022-09-11T19:33:36.414Z,61.71
2022-09-11T19:36:02.513Z,61.99
2022-09-11T19:38:28.626Z,62.22
2022-09-11T19:40:54.739Z,62.29
2022-09-11T19:43:20.845Z,62.53
2022-09-11T19:45:46.976Z,62.81
2022-09-11T19:48:13.070Z,63.04
2022-09-11T19:50:39.155Z,63.36
2022-09-11T19:53:05.314Z,63.51
2022-09-11T19:55:31.396Z,64.00
2022-09-11T19:57:57.480Z,64.42
2022-09-11T20:00:23.769Z,64.48
2022-09-11T20:02:49.963Z,64.59
2022-09-11T20:05:16.061Z,64.90
2022-09-11T20:07:42.170Z,65.08
2022-09-11T20:10:08.274Z,65.27
2022-09-11T20:12:34.373Z,65.56
2022-09-11T20:15:00.636Z,65.36
2022-09-11T20:17:26.760Z,65.54
2022-09-11T20:19:52.862Z,65.80
2022-09-11T20:22:18.975Z,65.72
2022-09-11T20:24:45.091Z,65.86
2022-09-11T20:27:11.231Z,65.78
2022-09-11T20:29:37.358Z,66.29
2022-09-11T20:32:03.505Z,66.47
2022-09-11T20:34:29.634Z,66.69
2022-09-11T20:36:55.756Z,66.59
2022-09-11T20:39:21.865Z,66.91
2022-09-11T20:41:47.962Z,66.97
2022-09-11T20:44:14.092Z,66.98
2022-09-11T20:46:40.234Z,67.17
2022-09-11T20:49:06.357Z,67.42
2022-09-11T20:51:32.553Z,67.48
2022-09-11T20:54:00.406Z,67.40
2022-09-11T20:56:26.829Z,67.57
2022-09-11T20:58:53.026Z,67.66
2022-09-11T21:01:19.234Z,67.57
2022-09-11T21:03:45.488Z,67.83
2022-09-11T21:06:11.742Z,67.91
2022-09-11T21:08:37.890Z,68.28
2022-09-11T21:11:04.022Z,68.25
2022-09-11T21:13:30.157Z,68.50
2022-09-11T21:15:56.275Z,68.52
2022-09-11T21:18:22.532Z,68.38
2022-09-11T21:20:48.637Z,68.32
2022-09-11T21:23:14.742Z,68.76
2022-09-11T21:25:40.841Z,68.71
2022-09-11T21:28:06.971Z,68.80
2022-09-11T21:30:33.067Z,68.54
2022-09-11T21:32:59.153Z,68.68
2022-09-11T21:35:25.273Z,68.85
2022-09-11T21:37:51.370Z,69.12
2022-09-11T21:40:17.471Z,68.85
2022-09-11T21:42:43.571Z,69.02
2022-09-11T21:45:09.685Z,69.07
2022-09-11T21:47:35.776Z,68.90
2022-09-11T21:50:01.896Z,69.06
2022-09-11T21:52:27.988Z,69.38
2022-09-11T21:54:54.077Z,69.18
2022-09-11T21:57:20.470Z,69.38
2022-09-11T21:59:46.563Z,69.51
2022-09-11T22:02:12.705Z,69.41
2022-09-11T22:04:38.860Z,69.65
2022-09-11T22:07:04.962Z,69.62
2022-09-11T22:09:31.058Z,69.86
2022-09-11T22:11:59.872Z,70.13
2022-09-11T22:14:26.154Z,70.01
2022-09-11T22:16:52.247Z,70.09
2022-09-11T22:19:18.672Z,70.02
2022-09-11T22:21:44.769Z,70.35
2022-09-11T22:24:10.849Z,70.63
2022-09-11T22:26:36.969Z,70.41
2022-09-11T22:29:03.055Z,70.72
2022-09-11T22:31:29.270Z,70.64
2022-09-11T22:33:55.463Z,70.61
2022-09-11T22:36:21.767Z,70.62
2022-09-11T22:38:47.864Z,71.01
2022-09-11T22:41:13.982Z,70.92
2022-09-11T22:43:40.098Z,71.00
2022-09-11T22:46:06.251Z,71.10
2022-09-11T22:48:32.374Z,70.99
2022-09-11T22:50:58.469Z,71.04
2022-09-11T22:53:24.552Z,71.33
2022-09-11T22:55:50.662Z,71.54
2022-09-11T22:58:16.769Z,71.44
2022-09-11T23:00:42.905Z,71.71
2022-09-11T23:03:09.441Z,71.86
2022-09-11T23:05:35.538Z,71.46
2022-09-11T23:08:01.613Z,71.66
2022-09-11T23:10:27.718Z,71.58
2022-09-11T23:12:53.810Z,71.67
2022-09-11T23:15:19.909Z,71.77
2022-09-11T23:17:46.036Z,71.58
2022-09-11T23:20:12.130Z,71.76
2022-09-11T23:22:38.205Z,72.00
2022-09-11T23:25:04.327Z,71.79
2022-09-11T23:27:30.420Z,71.96
2022-09-11T23:29:56.518Z,71.77
2022-09-11T23:32:22.644Z,71.96
2022-09-11T23:34:48.744Z,71.86
2022-09-11T23:37:14.833Z,72.33
2022-09-11T23:39:40.998Z,72.00
2022-09-11T23:42:07.120Z,72.32
2022-09-11T23:44:33.210Z,72.31
2022-09-11T23:46:59.335Z,72.03
2022-09-11T23:49:25.427Z,72.21
2022-09-11T23:51:51.541Z,71.76
2022-09-11T23:54:17.660Z,71.78
2022-09-11T23:56:43.760Z,71.64
2022-09-11T23:59:09.863Z,71.95
